createdAt,value
2018-09-06T00:00:25.576Z,18.20
2018-09-06T00:00:59.184Z,18.20
2018-09-06T00:01:33.534Z,18.20
2018-09-06T00:02:07.118Z,18.20
2018-09-06T00:02:40.645Z,18.20
2018-09-06T00:03:14.347Z,18.20
2018-09-06T00:03:47.890Z,18.20
2018-09-06T00:04:21.440Z,18.20
2018-09-06T00:04:55.031Z,18.20
2018-09-06T00:05:28.559Z,18.10
2018-09-06T00:06:02.130Z,18.10
2018-09-06T00:06:35.712Z,18.10
2018-09-06T00:07:09.225Z,18.20
2018-09-06T00:07:42.788Z,18.30
2018-09-06T00:08:16.404Z,18.20
2018-09-06T00:08:49.936Z,18.30
2018-09-06T00:09:23.512Z,18.20
2018-09-06T00:09:57.011Z,18.30
2018-09-06T00:10:30.572Z,18.20
2018-09-06T00:11:04.098Z,18.10
2018-09-06T00:11:37.748Z,18.20
2018-09-06T00:12:11.356Z,18.10
2018-09-06T00:12:44.884Z,18.20
2018-09-06T00:13:18.451Z,18.20
2018-09-06T00:13:51.973Z,18.20
2018-09-06T00:14:25.531Z,18.20
2018-09-06T00:14:59.066Z,18.30
2018-09-06T00:15:32.588Z,18.30
2018-09-06T00:16:06.172Z,18.20
2018-09-06T00:16:39.740Z,18.20
2018-09-06T00:17:13.267Z,18.20
2018-09-06T00:17:46.844Z,18.30
2018-09-06T00:18:20.410Z,18.20
2018-09-06T00:18:53.980Z,18.30
2018-09-06T00:19:27.488Z,18.40
2018-09-06T00:20:00.984Z,18.20
2018-09-06T00:20:34.532Z,18.20
2018-09-06T00:21:08.136Z,18.30
2018-09-06T00:21:41.740Z,18.30
2018-09-06T00:22:16.558Z,18.30
2018-09-06T00:22:50.182Z,18.20
2018-09-06T00:23:23.757Z,18.20
2018-09-06T00:23:57.270Z,18.40
2018-09-06T00:24:30.841Z,18.30
2018-09-06T00:25:04.676Z,18.40
2018-09-06T00:25:38.216Z,18.30
2018-09-06T00:26:11.743Z,18.30
2018-09-06T00:26:45.256Z,18.30
2018-09-06T00:27:18.780Z,18.30
2018-09-06T00:27:52.313Z,18.30
2018-09-06T00:28:25.848Z,18.40
2018-09-06T00:28:59.366Z,18.30
2018-09-06T00:29:32.925Z,18.30
2018-09-06T00:30:06.825Z,18.30
2018-09-06T00:30:40.406Z,18.50
2018-09-06T00:31:13.937Z,18.50
2018-09-06T00:31:47.462Z,18.40
2018-09-06T00:32:20.988Z,18.50
2018-09-06T00:32:54.580Z,18.50
2018-09-06T00:33:28.132Z,18.50
2018-09-06T00:34:01.712Z,18.50
2018-09-06T00:34:35.281Z,18.50
2018-09-06T00:35:08.833Z,18.50
2018-09-06T00:35:42.371Z,18.40
2018-09-06T00:36:15.934Z,18.50
2018-09-06T00:36:49.539Z,18.40
2018-09-06T00:37:23.117Z,18.50
2018-09-06T00:37:56.699Z,18.50
2018-09-06T00:38:30.232Z,18.50
2018-09-06T00:39:04.979Z,18.50
2018-09-06T00:39:38.538Z,18.60
2018-09-06T00:40:12.107Z,18.50
2018-09-06T00:40:45.747Z,18.50
2018-09-06T00:41:19.225Z,18.60
2018-09-06T00:41:52.809Z,18.60
2018-09-06T00:42:26.366Z,18.60
2018-09-06T00:42:59.912Z,18.60
2018-09-06T00:43:33.433Z,18.60
2018-09-06T00:44:06.979Z,18.60
2018-09-06T00:44:40.613Z,18.50
2018-09-06T00:45:14.163Z,18.50
2018-09-06T00:45:47.803Z,18.60
2018-09-06T00:46:21.355Z,18.70
2018-09-06T00:46:55.126Z,18.60
2018-09-06T00:47:28.734Z,18.70
2018-09-06T00:48:02.307Z,18.60
2018-09-06T00:48:35.946Z,18.60
2018-09-06T00:49:09.499Z,18.70
2018-09-06T00:49:43.092Z,18.70
2018-09-06T00:50:17.912Z,18.70
2018-09-06T00:50:51.497Z,18.70
2018-09-06T00:51:25.125Z,18.70
2018-09-06T00:51:58.708Z,18.70
2018-09-06T00:52:32.241Z,18.70
2018-09-06T00:53:06.345Z,18.60
2018-09-06T00:53:39.950Z,18.70
2018-09-06T00:54:13.533Z,18.70
2018-09-06T00:54:47.140Z,18.70
2018-09-06T00:55:21.257Z,18.70
2018-09-06T00:55:54.880Z,18.80
2018-09-06T00:56:28.439Z,18.70
2018-09-06T00:57:01.999Z,18.70
2018-09-06T00:57:35.628Z,18.70
2018-09-06T00:58:09.205Z,18.70
2018-09-06T00:58:42.773Z,18.70
2018-09-06T00:59:20.401Z,18.70
2018-09-06T00:59:53.956Z,18.70
2018-09-06T01:00:27.527Z,18.70
2018-09-06T01:01:01.066Z,18.70
2018-09-06T01:01:34.683Z,18.70
2018-09-06T01:02:08.615Z,18.70
2018-09-06T01:02:42.533Z,18.60
2018-09-06T01:03:16.089Z,18.60
2018-09-06T01:03:49.609Z,18.60
2018-09-06T01:04:23.173Z,18.70
2018-09-06T01:04:56.707Z,18.70
2018-09-06T01:05:30.535Z,18.60
2018-09-06T01:06:04.096Z,18.60
2018-09-06T01:06:37.647Z,18.60
2018-09-06T01:07:11.230Z,18.60
2018-09-06T01:07:44.785Z,18.70
2018-09-06T01:08:18.387Z,18.70
2018-09-06T01:08:51.972Z,18.70
2018-09-06T01:09:25.531Z,18.70
2018-09-06T01:09:59.043Z,18.70
2018-09-06T01:10:32.581Z,18.70
2018-09-06T01:11:06.673Z,18.60
2018-09-06T01:11:40.210Z,18.70
2018-09-06T01:12:14.617Z,18.50
2018-09-06T01:12:48.160Z,18.50
2018-09-06T01:13:21.663Z,18.60
2018-09-06T01:13:55.361Z,18.50
2018-09-06T01:14:28.841Z,18.50
2018-09-06T01:15:02.462Z,18.60
2018-09-06T01:15:36.005Z,18.70
2018-09-06T01:16:09.615Z,18.70
2018-09-06T01:16:43.104Z,18.70
2018-09-06T01:17:16.677Z,18.60
2018-09-06T01:17:50.220Z,18.70
2018-09-06T01:18:23.787Z,18.60
2018-09-06T01:18:57.309Z,18.60
2018-09-06T01:19:31.037Z,18.60
2018-09-06T01:20:04.683Z,18.60
2018-09-06T01:20:38.280Z,18.70
2018-09-06T01:21:11.849Z,18.70
2018-09-06T01:21:45.375Z,18.70
2018-09-06T01:22:18.996Z,18.70
2018-09-06T01:22:52.535Z,18.70
2018-09-06T01:23:26.073Z,18.70
2018-09-06T01:23:59.619Z,18.70
2018-09-06T01:24:33.174Z,18.80
2018-09-06T01:25:06.803Z,18.70
2018-09-06T01:25:46.017Z,18.70
2018-09-06T01:26:19.545Z,18.70
2018-09-06T01:26:53.117Z,18.70
2018-09-06T01:27:26.667Z,18.70
2018-09-06T01:28:00.195Z,18.70
2018-09-06T01:28:33.722Z,18.70
2018-09-06T01:29:07.280Z,18.70
2018-09-06T01:29:40.900Z,18.80
2018-09-06T01:30:14.462Z,18.70
2018-09-06T01:30:48.235Z,18.70
2018-09-06T01:31:21.779Z,18.80
2018-09-06T01:31:55.314Z,18.90
2018-09-06T01:32:28.880Z,18.80
2018-09-06T01:33:02.442Z,18.80
2018-09-06T01:33:36.278Z,18.80
2018-09-06T01:34:09.796Z,18.70
2018-09-06T01:34:43.766Z,18.80
2018-09-06T01:35:17.310Z,18.70
2018-09-06T01:35:56.562Z,18.80
2018-09-06T01:36:35.858Z,18.70
2018-09-06T01:37:09.980Z,18.70
2018-09-06T01:37:43.558Z,18.70
2018-09-06T01:38:17.129Z,18.80
2018-09-06T01:38:50.659Z,18.70
2018-09-06T01:39:24.167Z,18.80
2018-09-06T01:39:57.680Z,18.80
2018-09-06T01:40:31.544Z,18.70
2018-09-06T01:41:05.143Z,18.80
2018-09-06T01:41:38.655Z,18.80
2018-09-06T01:42:12.180Z,18.80
2018-09-06T01:42:45.712Z,18.80
2018-09-06T01:43:19.247Z,18.90
2018-09-06T01:43:52.840Z,18.70
2018-09-06T01:44:26.383Z,18.80
2018-09-06T01:44:59.927Z,18.80
2018-09-06T01:45:33.458Z,18.90
2018-09-06T01:46:06.986Z,18.80
2018-09-06T01:46:40.463Z,18.80
2018-09-06T01:47:14.024Z,18.80
2018-09-06T01:47:47.576Z,18.90
2018-09-06T01:48:21.147Z,18.90
2018-09-06T01:48:54.694Z,18.80
2018-09-06T01:49:28.496Z,18.80
2018-09-06T01:50:02.037Z,18.90
2018-09-06T01:50:35.616Z,18.90
2018-09-06T01:51:09.108Z,18.90
2018-09-06T01:51:42.639Z,18.90
2018-09-06T01:52:16.180Z,18.90
2018-09-06T01:52:49.720Z,18.90
2018-09-06T01:53:23.280Z,18.90
2018-09-06T01:53:56.892Z,18.90
2018-09-06T01:54:30.430Z,18.90
2018-09-06T01:55:04.006Z,19.00
2018-09-06T01:55:37.514Z,19.00
2018-09-06T01:56:11.082Z,18.90
2018-09-06T01:56:44.590Z,18.90
2018-09-06T01:57:18.110Z,18.80
2018-09-06T01:57:51.666Z,19.00
2018-09-06T01:58:25.225Z,19.00
2018-09-06T01:58:58.759Z,18.90
2018-09-06T01:59:35.468Z,19.00
2018-09-06T02:00:09.026Z,19.00
2018-09-06T02:00:42.612Z,18.90
2018-09-06T02:01:16.189Z,19.00
2018-09-06T02:01:49.728Z,19.00
2018-09-06T02:02:23.250Z,19.00
2018-09-06T02:02:56.750Z,19.00
2018-09-06T02:03:30.268Z,19.00
2018-09-06T02:04:03.874Z,18.90
2018-09-06T02:04:37.756Z,18.90
2018-09-06T02:05:15.987Z,19.00
2018-09-06T02:05:49.502Z,19.00
2018-09-06T02:06:23.040Z,19.00
2018-09-06T02:06:56.558Z,19.00
2018-09-06T02:07:30.079Z,19.10
2018-09-06T02:08:05.368Z,19.00
2018-09-06T02:08:39.132Z,19.00
2018-09-06T02:09:12.672Z,19.00
2018-09-06T02:09:46.228Z,19.00
2018-09-06T02:10:19.771Z,19.00
2018-09-06T02:10:53.344Z,19.00
2018-09-06T02:11:26.880Z,19.00
2018-09-06T02:12:00.420Z,19.00
2018-09-06T02:12:33.930Z,18.90
2018-09-06T02:13:07.485Z,19.00
2018-09-06T02:13:41.044Z,19.00
2018-09-06T02:14:14.646Z,19.10
2018-09-06T02:14:48.189Z,19.00
2018-09-06T02:15:21.799Z,19.00
2018-09-06T02:15:55.390Z,19.00
2018-09-06T02:16:28.941Z,18.90
2018-09-06T02:17:02.522Z,18.90
2018-09-06T02:17:36.042Z,19.00
2018-09-06T02:18:09.579Z,19.00
2018-09-06T02:18:43.101Z,19.00
2018-09-06T02:19:16.616Z,18.90
2018-09-06T02:19:50.145Z,19.00
2018-09-06T02:20:23.649Z,19.00
2018-09-06T02:20:57.197Z,18.90
2018-09-06T02:21:30.840Z,19.00
2018-09-06T02:22:04.498Z,19.00
2018-09-06T02:22:38.054Z,19.00
2018-09-06T02:23:11.619Z,18.90
2018-09-06T02:23:45.134Z,19.00
2018-09-06T02:24:18.763Z,19.00
2018-09-06T02:24:52.567Z,19.00
2018-09-06T02:25:26.165Z,18.90
2018-09-06T02:25:59.748Z,19.00
2018-09-06T02:26:33.265Z,19.00
2018-09-06T02:27:06.828Z,18.90
2018-09-06T02:27:40.373Z,19.00
2018-09-06T02:28:14.005Z,19.00
2018-09-06T02:28:47.537Z,19.00
2018-09-06T02:29:21.218Z,19.00
2018-09-06T02:29:54.742Z,19.00
2018-09-06T02:30:28.317Z,18.90
2018-09-06T02:31:01.887Z,18.90
2018-09-06T02:31:35.738Z,18.90
2018-09-06T02:32:09.239Z,18.90
2018-09-06T02:32:42.780Z,18.90
2018-09-06T02:33:16.341Z,18.90
2018-09-06T02:33:49.905Z,18.90
2018-09-06T02:34:23.443Z,18.90
2018-09-06T02:34:56.958Z,18.90
2018-09-06T02:35:30.478Z,19.00
2018-09-06T02:36:03.973Z,18.80
2018-09-06T02:36:37.490Z,18.90
2018-09-06T02:37:11.029Z,18.90
2018-09-06T02:37:44.599Z,18.90
2018-09-06T02:38:18.171Z,18.90
2018-09-06T02:38:51.736Z,18.90
2018-09-06T02:39:25.276Z,18.90
2018-09-06T02:39:58.833Z,18.80
2018-09-06T02:40:39.192Z,18.90
2018-09-06T02:41:12.698Z,18.90
2018-09-06T02:41:46.255Z,18.80
2018-09-06T02:42:19.803Z,18.90
2018-09-06T02:42:53.336Z,18.80
2018-09-06T02:43:26.861Z,18.90
2018-09-06T02:44:00.404Z,18.80
2018-09-06T02:44:33.900Z,18.80
2018-09-06T02:45:07.583Z,18.80
2018-09-06T02:45:42.400Z,18.80
2018-09-06T02:46:15.927Z,18.80
2018-09-06T02:46:49.433Z,18.80
2018-09-06T02:47:23.016Z,18.90
2018-09-06T02:47:56.527Z,18.90
2018-09-06T02:48:35.773Z,18.90
2018-09-06T02:49:09.329Z,18.80
2018-09-06T02:49:48.708Z,18.90
2018-09-06T02:50:28.160Z,18.80
2018-09-06T02:51:07.329Z,18.80
2018-09-06T02:51:40.849Z,18.70
2018-09-06T02:52:14.412Z,18.80
2018-09-06T02:52:47.972Z,18.60
2018-09-06T02:53:21.553Z,18.70
2018-09-06T02:53:55.130Z,18.70
2018-09-06T02:54:28.677Z,18.60
2018-09-06T02:55:02.248Z,18.80
2018-09-06T02:55:35.808Z,18.70
2018-09-06T02:56:09.804Z,18.70
2018-09-06T02:56:43.389Z,18.70
2018-09-06T02:57:16.952Z,18.70
2018-09-06T02:57:50.547Z,18.60
2018-09-06T02:58:24.045Z,18.70
2018-09-06T02:58:57.618Z,18.60
2018-09-06T02:59:31.136Z,18.50
2018-09-06T03:00:04.779Z,18.60
2018-09-06T03:00:38.780Z,18.60
2018-09-06T03:01:12.346Z,18.70
2018-09-06T03:01:45.846Z,18.60
2018-09-06T03:02:19.363Z,18.50
2018-09-06T03:02:52.880Z,18.70
2018-09-06T03:03:26.408Z,18.70
2018-09-06T03:04:00.029Z,18.60
2018-09-06T03:04:33.597Z,18.40
2018-09-06T03:05:07.148Z,18.60
2018-09-06T03:05:40.671Z,18.50
2018-09-06T03:06:14.247Z,18.40
2018-09-06T03:06:47.777Z,18.40
2018-09-06T03:07:21.284Z,18.40
2018-09-06T03:07:55.966Z,18.40
2018-09-06T03:08:30.787Z,18.50
2018-09-06T03:09:06.870Z,18.40
2018-09-06T03:09:40.393Z,18.50
2018-09-06T03:10:13.953Z,18.40
2018-09-06T03:10:49.560Z,18.50
2018-09-06T03:11:25.215Z,18.40
2018-09-06T03:12:01.374Z,18.50
2018-09-06T03:12:34.881Z,18.50
2018-09-06T03:13:08.395Z,18.40
2018-09-06T03:13:41.989Z,18.50
2018-09-06T03:14:15.555Z,18.30
2018-09-06T03:14:49.098Z,18.30
2018-09-06T03:15:22.732Z,18.40
2018-09-06T03:15:56.251Z,18.30
2018-09-06T03:16:29.795Z,18.40
2018-09-06T03:17:03.297Z,18.20
2018-09-06T03:17:36.833Z,18.20
2018-09-06T03:18:10.394Z,18.30
2018-09-06T03:18:43.933Z,18.30
2018-09-06T03:19:17.502Z,18.20
2018-09-06T03:19:51.009Z,18.20
2018-09-06T03:20:24.516Z,18.20
2018-09-06T03:20:58.045Z,18.30
2018-09-06T03:21:31.551Z,18.30
2018-09-06T03:22:05.062Z,18.30
2018-09-06T03:22:38.857Z,18.10
2018-09-06T03:23:12.417Z,18.30
2018-09-06T03:23:45.931Z,18.20
2018-09-06T03:24:19.474Z,18.30
2018-09-06T03:24:52.979Z,18.20
2018-09-06T03:25:26.441Z,18.30
2018-09-06T03:25:59.993Z,18.30
2018-09-06T03:26:33.520Z,18.20
2018-09-06T03:27:07.105Z,18.30
2018-09-06T03:27:40.613Z,18.30
2018-09-06T03:28:14.145Z,18.20
2018-09-06T03:28:48.961Z,18.20
2018-09-06T03:29:22.514Z,18.30
2018-09-06T03:29:56.065Z,18.20
2018-09-06T03:30:29.638Z,18.20
2018-09-06T03:31:03.141Z,18.20
2018-09-06T03:31:36.633Z,18.20
2018-09-06T03:32:10.150Z,18.10
2018-09-06T03:32:43.667Z,18.20
2018-09-06T03:33:17.283Z,18.20
2018-09-06T03:33:50.873Z,18.20
2018-09-06T03:34:24.367Z,18.20
2018-09-06T03:34:57.875Z,18.30
2018-09-06T03:35:31.357Z,18.20
2018-09-06T03:36:04.926Z,18.10
2018-09-06T03:36:38.473Z,18.10
2018-09-06T03:37:12.017Z,18.20
2018-09-06T03:37:45.539Z,18.20
2018-09-06T03:38:19.100Z,18.20
2018-09-06T03:38:52.631Z,18.20
2018-09-06T03:39:26.145Z,18.20
2018-09-06T03:39:59.668Z,18.20
2018-09-06T03:40:33.175Z,18.20
2018-09-06T03:41:06.900Z,18.30
2018-09-06T03:41:40.456Z,18.20
2018-09-06T03:42:13.997Z,18.30
2018-09-06T03:42:47.512Z,18.20
2018-09-06T03:43:21.090Z,18.30
2018-09-06T03:43:54.670Z,18.20
2018-09-06T03:44:28.199Z,18.30
2018-09-06T03:45:01.732Z,18.40
2018-09-06T03:45:35.259Z,18.20
2018-09-06T03:46:09.239Z,18.20
2018-09-06T03:46:42.779Z,18.20
2018-09-06T03:47:16.298Z,18.20
2018-09-06T03:47:49.876Z,18.30
2018-09-06T03:48:23.454Z,18.20
2018-09-06T03:48:56.984Z,18.30
2018-09-06T03:49:30.508Z,18.20
2018-09-06T03:50:04.040Z,18.20
2018-09-06T03:50:37.544Z,18.20
2018-09-06T03:51:11.058Z,18.20
2018-09-06T03:51:44.583Z,18.30
2018-09-06T03:52:18.081Z,18.30
2018-09-06T03:52:51.620Z,18.20
2018-09-06T03:53:25.214Z,18.20
2018-09-06T03:53:58.739Z,18.20
2018-09-06T03:54:32.269Z,18.30
2018-09-06T03:55:05.880Z,18.20
2018-09-06T03:55:39.412Z,18.30
2018-09-06T03:56:12.952Z,18.20
2018-09-06T03:56:46.511Z,18.20
2018-09-06T03:57:20.058Z,18.30
2018-09-06T03:57:53.647Z,18.30
2018-09-06T03:58:27.211Z,18.30
2018-09-06T03:59:00.720Z,18.30
2018-09-06T03:59:34.520Z,18.20
2018-09-06T04:00:08.072Z,18.20
2018-09-06T04:00:41.578Z,18.20
2018-09-06T04:01:15.079Z,18.30
2018-09-06T04:01:48.602Z,18.20
2018-09-06T04:02:22.124Z,18.20
2018-09-06T04:02:55.625Z,18.20
2018-09-06T04:03:29.151Z,18.30
2018-09-06T04:04:02.703Z,18.40
2018-09-06T04:04:36.236Z,18.30
2018-09-06T04:05:09.786Z,18.20
2018-09-06T04:05:43.347Z,18.30
2018-09-06T04:06:16.861Z,18.30
2018-09-06T04:06:50.404Z,18.20
2018-09-06T04:07:23.952Z,18.40
2018-09-06T04:07:57.509Z,18.30
2018-09-06T04:08:31.038Z,18.20
2018-09-06T04:09:08.566Z,18.30
2018-09-06T04:09:42.125Z,18.30
2018-09-06T04:10:15.630Z,18.30
2018-09-06T04:10:49.196Z,18.30
2018-09-06T04:11:22.730Z,18.30
2018-09-06T04:11:56.254Z,18.30
2018-09-06T04:12:29.750Z,18.30
2018-09-06T04:13:03.272Z,18.30
2018-09-06T04:13:36.879Z,18.30
2018-09-06T04:14:10.390Z,18.30
2018-09-06T04:14:43.925Z,18.20
2018-09-06T04:15:17.504Z,18.30
2018-09-06T04:15:51.052Z,18.30
2018-09-06T04:16:24.605Z,18.30
2018-09-06T04:16:58.145Z,18.40
2018-09-06T04:17:31.650Z,18.30
2018-09-06T04:18:05.198Z,18.30
2018-09-06T04:18:38.837Z,18.30
2018-09-06T04:19:12.330Z,18.30
2018-09-06T04:19:45.895Z,18.30
2018-09-06T04:20:19.421Z,18.20
2018-09-06T04:20:52.948Z,18.30
2018-09-06T04:21:26.477Z,18.30
2018-09-06T04:21:59.995Z,18.30
2018-09-06T04:22:33.500Z,18.30
2018-09-06T04:23:07.061Z,18.30
2018-09-06T04:23:40.618Z,18.30
2018-09-06T04:24:14.178Z,18.30
2018-09-06T04:24:47.696Z,18.30
2018-09-06T04:25:21.209Z,18.40
2018-09-06T04:25:54.812Z,18.40
2018-09-06T04:26:28.290Z,18.30
2018-09-06T04:27:01.783Z,18.30
2018-09-06T04:27:35.323Z,18.20
2018-09-06T04:28:08.881Z,18.20
2018-09-06T04:28:42.424Z,18.20
2018-09-06T04:29:15.962Z,18.30
2018-09-06T04:29:49.515Z,18.30
2018-09-06T04:30:23.011Z,18.30
2018-09-06T04:30:56.544Z,18.30
2018-09-06T04:31:30.335Z,18.40
2018-09-06T04:32:03.887Z,18.40
2018-09-06T04:32:37.369Z,18.20
2018-09-06T04:33:10.870Z,18.30
2018-09-06T04:33:44.740Z,18.40
2018-09-06T04:34:18.257Z,18.30
2018-09-06T04:34:51.773Z,18.30
2018-09-06T04:35:25.301Z,18.30
2018-09-06T04:35:58.890Z,18.30
2018-09-06T04:36:32.407Z,18.30
2018-09-06T04:37:05.981Z,18.30
2018-09-06T04:37:39.555Z,18.30
2018-09-06T04:38:13.404Z,18.30
2018-09-06T04:38:46.936Z,18.40
2018-09-06T04:39:20.523Z,18.30
2018-09-06T04:39:54.051Z,18.30
2018-09-06T04:40:27.595Z,18.30
2018-09-06T04:41:01.177Z,18.30
2018-09-06T04:41:34.737Z,18.40
2018-09-06T04:42:08.252Z,18.40
2018-09-06T04:42:41.771Z,18.30
2018-09-06T04:43:15.277Z,18.30
2018-09-06T04:43:48.897Z,18.40
2018-09-06T04:44:22.369Z,18.40
2018-09-06T04:44:55.877Z,18.50
2018-09-06T04:45:29.434Z,18.40
2018-09-06T04:46:03.063Z,18.50
2018-09-06T04:46:36.580Z,18.40
2018-09-06T04:47:10.084Z,18.40
2018-09-06T04:47:43.589Z,18.40
2018-09-06T04:48:17.125Z,18.40
2018-09-06T04:48:50.623Z,18.50
2018-09-06T04:49:24.133Z,18.40
2018-09-06T04:49:57.694Z,18.40
2018-09-06T04:50:31.245Z,18.50
2018-09-06T04:51:04.817Z,18.50
2018-09-06T04:51:38.346Z,18.40
2018-09-06T04:52:11.901Z,18.40
2018-09-06T04:52:45.393Z,18.40
2018-09-06T04:53:18.891Z,18.50
2018-09-06T04:53:52.411Z,18.50
2018-09-06T04:54:25.910Z,18.50
2018-09-06T04:54:59.445Z,18.50
2018-09-06T04:55:32.991Z,18.50
2018-09-06T04:56:06.555Z,18.50
2018-09-06T04:56:40.121Z,18.40
2018-09-06T04:57:13.643Z,18.40
2018-09-06T04:57:47.148Z,18.50
2018-09-06T04:58:20.880Z,18.40
2018-09-06T04:58:54.376Z,18.50
2018-09-06T04:59:27.905Z,18.60
2018-09-06T05:00:01.465Z,18.60
2018-09-06T05:00:34.991Z,18.50
2018-09-06T05:01:08.506Z,18.40
2018-09-06T05:01:42.050Z,18.50
2018-09-06T05:02:15.677Z,18.50
2018-09-06T05:02:49.255Z,18.50
2018-09-06T05:03:22.785Z,18.50
2018-09-06T05:03:56.320Z,18.50
2018-09-06T05:04:29.898Z,18.60
2018-09-06T05:05:03.463Z,18.50
2018-09-06T05:05:36.993Z,18.50
2018-09-06T05:06:10.514Z,18.60
2018-09-06T05:06:44.073Z,18.50
2018-09-06T05:07:17.897Z,18.50
2018-09-06T05:07:51.426Z,18.50
2018-09-06T05:08:24.965Z,18.60
2018-09-06T05:08:58.737Z,18.50
2018-09-06T05:09:32.239Z,18.50
2018-09-06T05:10:06.434Z,18.60
2018-09-06T05:10:39.958Z,18.50
2018-09-06T05:11:13.563Z,18.50
2018-09-06T05:11:47.071Z,18.50
2018-09-06T05:12:20.591Z,18.50
2018-09-06T05:12:54.062Z,18.50
2018-09-06T05:13:27.576Z,18.50
2018-09-06T05:14:01.135Z,18.50
2018-09-06T05:14:34.693Z,18.50
2018-09-06T05:15:08.303Z,18.50
2018-09-06T05:15:41.880Z,18.60
2018-09-06T05:16:15.388Z,18.50
2018-09-06T05:16:48.900Z,18.50
2018-09-06T05:17:22.421Z,18.60
2018-09-06T05:17:55.953Z,18.60
2018-09-06T05:18:29.543Z,18.50
2018-09-06T05:19:03.051Z,18.50
2018-09-06T05:19:36.577Z,18.60
2018-09-06T05:20:10.119Z,18.60
2018-09-06T05:20:43.669Z,18.50
2018-09-06T05:21:17.169Z,18.50
2018-09-06T05:21:50.736Z,18.60
2018-09-06T05:22:24.189Z,18.60
2018-09-06T05:22:57.741Z,18.60
2018-09-06T05:23:31.264Z,18.50
2018-09-06T05:24:04.795Z,18.60
2018-09-06T05:24:38.315Z,18.50
2018-09-06T05:25:11.832Z,18.60
2018-09-06T05:25:45.370Z,18.60
2018-09-06T05:26:18.869Z,18.60
2018-09-06T05:26:52.360Z,18.60
2018-09-06T05:27:25.883Z,18.60
2018-09-06T05:27:59.479Z,18.60
2018-09-06T05:28:33.016Z,18.50
2018-09-06T05:29:06.533Z,18.60
2018-09-06T05:29:40.063Z,18.60
2018-09-06T05:30:13.645Z,18.50
2018-09-06T05:30:47.242Z,18.70
2018-09-06T05:31:20.696Z,18.60
2018-09-06T05:31:54.183Z,18.70
2018-09-06T05:32:27.705Z,18.60
2018-09-06T05:33:01.224Z,18.60
2018-09-06T05:33:34.725Z,18.60
2018-09-06T05:34:08.253Z,18.50
2018-09-06T05:34:41.779Z,18.50
2018-09-06T05:35:15.316Z,18.50
2018-09-06T05:35:48.855Z,18.50
2018-09-06T05:36:22.369Z,18.60
2018-09-06T05:36:55.878Z,18.60
2018-09-06T05:37:29.391Z,18.50
2018-09-06T05:38:02.929Z,18.60
2018-09-06T05:38:36.419Z,18.60
2018-09-06T05:39:11.857Z,18.70
2018-09-06T05:39:45.370Z,18.50
2018-09-06T05:40:18.988Z,18.50
2018-09-06T05:40:52.567Z,18.50
2018-09-06T05:41:26.079Z,18.60
2018-09-06T05:41:59.613Z,18.70
2018-09-06T05:42:33.133Z,18.60
2018-09-06T05:43:06.697Z,18.60
2018-09-06T05:43:40.203Z,18.60
2018-09-06T05:44:13.717Z,18.60
2018-09-06T05:44:47.244Z,18.60
2018-09-06T05:45:20.771Z,18.50
2018-09-06T05:45:54.394Z,18.60
2018-09-06T05:46:27.955Z,18.60
2018-09-06T05:47:01.856Z,18.60
2018-09-06T05:47:35.406Z,18.60
2018-09-06T05:48:08.911Z,18.60
2018-09-06T05:48:42.465Z,18.60
2018-09-06T05:49:15.964Z,18.60
2018-09-06T05:49:49.481Z,18.60
2018-09-06T05:50:23.081Z,18.50
2018-09-06T05:50:56.605Z,18.50
2018-09-06T05:51:30.134Z,18.70
2018-09-06T05:52:03.698Z,18.60
2018-09-06T05:52:37.213Z,18.70
2018-09-06T05:53:10.695Z,18.60
2018-09-06T05:53:44.227Z,18.70
2018-09-06T05:54:17.750Z,18.70
2018-09-06T05:54:51.283Z,18.60
2018-09-06T05:55:24.880Z,18.60
2018-09-06T05:55:58.415Z,18.70
2018-09-06T05:56:32.000Z,18.60
2018-09-06T05:57:05.671Z,18.60
2018-09-06T05:57:39.197Z,18.70
2018-09-06T05:58:12.762Z,18.60
2018-09-06T05:58:46.309Z,18.60
2018-09-06T05:59:19.833Z,18.60
2018-09-06T05:59:53.373Z,18.50
2018-09-06T06:00:32.547Z,18.60
2018-09-06T06:01:06.432Z,18.50
2018-09-06T06:01:39.967Z,18.60
2018-09-06T06:02:13.488Z,18.50
2018-09-06T06:02:47.583Z,18.50
2018-09-06T06:03:21.161Z,18.60
2018-09-06T06:03:54.767Z,18.50
2018-09-06T06:04:28.383Z,18.40
2018-09-06T06:05:01.908Z,18.50
2018-09-06T06:05:35.583Z,18.40
2018-09-06T06:06:09.117Z,18.40
2018-09-06T06:06:42.686Z,18.40
2018-09-06T06:07:16.215Z,18.50
2018-09-06T06:08:55.250Z,18.40
2018-09-06T06:09:28.774Z,18.40
2018-09-06T06:10:02.310Z,18.50
2018-09-06T06:10:35.876Z,18.40
2018-09-06T06:11:09.403Z,18.50
2018-09-06T06:11:43.028Z,18.50
2018-09-06T06:12:16.523Z,18.50
2018-09-06T06:12:50.044Z,18.50
2018-09-06T06:13:23.589Z,18.40
2018-09-06T06:13:57.089Z,18.50
2018-09-06T06:14:30.614Z,18.40
2018-09-06T06:15:04.278Z,18.40
2018-09-06T06:15:37.832Z,18.40
2018-09-06T06:16:12.225Z,18.40
2018-09-06T06:16:45.738Z,18.40
2018-09-06T06:17:19.290Z,18.30
2018-09-06T06:17:52.862Z,18.30
2018-09-06T06:18:26.410Z,18.40
2018-09-06T06:18:59.932Z,18.40
2018-09-06T06:19:33.546Z,18.30
2018-09-06T06:20:07.206Z,18.40
2018-09-06T06:20:40.766Z,18.30
2018-09-06T06:21:14.310Z,18.30
2018-09-06T06:21:47.874Z,18.20
2018-09-06T06:22:21.384Z,18.20
2018-09-06T06:22:54.906Z,18.20
2018-09-06T06:23:28.455Z,18.20
2018-09-06T06:24:01.985Z,18.40
2018-09-06T06:24:35.562Z,18.20
2018-09-06T06:25:09.106Z,18.20
2018-09-06T06:25:42.674Z,18.20
2018-09-06T06:26:16.212Z,18.20
2018-09-06T06:26:49.746Z,18.20
2018-09-06T06:27:23.277Z,18.20
2018-09-06T06:27:56.828Z,18.30
2018-09-06T06:28:30.435Z,18.30
2018-09-06T06:29:03.980Z,18.10
2018-09-06T06:29:37.526Z,18.20
2018-09-06T06:30:11.060Z,18.20
2018-09-06T06:30:44.568Z,18.10
2018-09-06T06:31:18.110Z,18.20
2018-09-06T06:31:51.698Z,18.20
2018-09-06T06:32:25.344Z,18.10
2018-09-06T06:32:58.820Z,18.20
2018-09-06T06:33:32.388Z,18.20
2018-09-06T06:34:06.021Z,18.20
2018-09-06T06:34:39.548Z,18.20
2018-09-06T06:35:13.104Z,18.20
2018-09-06T06:35:46.626Z,18.20
2018-09-06T06:36:20.138Z,18.10
2018-09-06T06:36:53.629Z,18.10
2018-09-06T06:37:27.131Z,18.10
2018-09-06T06:38:00.700Z,18.10
2018-09-06T06:38:34.272Z,18.20
2018-09-06T06:39:10.674Z,18.20
2018-09-06T06:39:44.224Z,18.20
2018-09-06T06:40:17.820Z,18.10
2018-09-06T06:40:51.320Z,18.20
2018-09-06T06:41:24.840Z,18.10
2018-09-06T06:41:58.352Z,18.20
2018-09-06T06:42:31.940Z,18.10
2018-09-06T06:43:05.516Z,18.20
2018-09-06T06:43:39.058Z,18.20
2018-09-06T06:44:12.579Z,18.20
2018-09-06T06:44:46.138Z,18.20
2018-09-06T06:45:19.639Z,18.20
2018-09-06T06:45:53.156Z,18.20
2018-09-06T06:46:26.714Z,18.20
2018-09-06T06:47:00.240Z,18.20
2018-09-06T06:47:33.787Z,18.20
2018-09-06T06:48:07.468Z,18.20
2018-09-06T06:48:41.078Z,18.20
2018-09-06T06:49:14.598Z,18.10
2018-09-06T06:49:48.134Z,18.20
2018-09-06T06:50:21.790Z,18.20
2018-09-06T06:50:55.263Z,18.20
2018-09-06T06:51:28.828Z,18.10
2018-09-06T06:52:02.368Z,18.10
2018-09-06T06:52:35.908Z,18.00
2018-09-06T06:53:09.448Z,18.00
2018-09-06T06:53:42.980Z,18.10
2018-09-06T06:54:16.502Z,18.10
2018-09-06T06:54:50.150Z,18.10
2018-09-06T06:55:23.652Z,18.00
2018-09-06T06:55:57.166Z,18.10
2018-09-06T06:56:30.719Z,18.10
2018-09-06T06:57:04.324Z,18.10
2018-09-06T06:57:37.844Z,18.10
2018-09-06T06:58:11.362Z,18.20
2018-09-06T06:58:44.875Z,18.10
2018-09-06T06:59:18.394Z,17.90
2018-09-06T06:59:51.899Z,18.10
2018-09-06T07:00:25.478Z,18.00
2018-09-06T07:00:59.059Z,18.00
2018-09-06T07:01:32.562Z,18.00
2018-09-06T07:02:06.740Z,17.90
2018-09-06T07:02:40.238Z,18.00
2018-09-06T07:03:14.266Z,17.90
2018-09-06T07:03:47.794Z,17.90
2018-09-06T07:04:21.390Z,17.90
2018-09-06T07:04:55.288Z,17.90
2018-09-06T07:05:28.824Z,18.00
2018-09-06T07:06:02.373Z,17.90
2018-09-06T07:06:35.891Z,17.90
2018-09-06T07:07:09.431Z,17.90
2018-09-06T07:07:42.923Z,17.90
2018-09-06T07:08:16.434Z,17.90
2018-09-06T07:08:49.924Z,18.00
2018-09-06T07:09:23.416Z,18.00
2018-09-06T07:09:56.942Z,17.90
2018-09-06T07:10:30.492Z,17.90
2018-09-06T07:11:04.131Z,17.90
2018-09-06T07:11:37.650Z,17.80
2018-09-06T07:12:11.148Z,17.90
2018-09-06T07:12:44.661Z,17.90
2018-09-06T07:13:18.174Z,17.90
2018-09-06T07:13:51.698Z,17.90
2018-09-06T07:14:25.268Z,17.90
2018-09-06T07:14:58.816Z,17.90